createdAt,value
2023-01-22T00:01:39.894Z,101662.97
2023-01-22T00:04:09.407Z,101669.94
2023-01-22T00:06:37.960Z,101659.63
2023-01-22T00:09:08.992Z,101667.50
2023-01-22T00:11:37.373Z,101666.56
2023-01-22T00:14:05.933Z,101658.84
2023-01-22T00:16:35.760Z,101661.56
2023-01-22T00:19:04.224Z,101659.25
2023-01-22T00:21:32.548Z,101651.69
2023-01-22T00:24:00.974Z,101651.81
2023-01-22T00:26:29.722Z,101655.31
2023-01-22T00:28:58.327Z,101649.22
2023-01-22T00:31:26.889Z,101642.53
2023-01-22T00:33:58.853Z,101629.81
2023-01-22T00:36:27.251Z,101632.53
2023-01-22T00:38:55.715Z,101626.59
2023-01-22T00:41:24.084Z,101626.75
2023-01-22T00:43:53.068Z,101626.75
2023-01-22T00:46:21.846Z,101628.53
2023-01-22T00:48:51.031Z,101619.91
2023-01-22T00:51:21.140Z,101616.44
2023-01-22T00:53:49.569Z,101609.44
2023-01-22T00:56:18.229Z,101604.28
2023-01-22T00:58:46.780Z,101600.03
2023-01-22T01:01:16.225Z,101620.66
2023-01-22T01:03:44.520Z,101616.28
2023-01-22T01:06:16.366Z,101611.28
2023-01-22T01:08:46.555Z,101606.13
2023-01-22T01:11:19.542Z,101611.28
2023-01-22T01:13:47.901Z,101600.19
2023-01-22T01:16:19.368Z,101608.69
2023-01-22T01:18:51.160Z,101612.16
2023-01-22T01:21:20.398Z,101605.97
2023-01-22T01:23:51.569Z,101606.13
2023-01-22T01:26:20.068Z,101599.13
2023-01-22T01:28:49.234Z,101607.03
2023-01-22T01:31:18.252Z,101607.75
2023-01-22T01:33:46.999Z,101603.53
2023-01-22T01:36:21.260Z,101605.19
2023-01-22T01:38:57.297Z,101603.38
2023-01-22T01:41:27.394Z,101604.28
2023-01-22T01:44:13.677Z,101596.56
2023-01-22T01:46:46.925Z,101604.28
2023-01-22T01:49:29.448Z,101594.88
2023-01-22T01:52:00.946Z,101598.38
2023-01-22T01:54:32.000Z,101599.28
2023-01-22T01:57:05.325Z,101600.03
2023-01-22T01:59:35.745Z,101599.13
2023-01-22T02:02:05.085Z,101600.66
2023-01-22T02:04:33.976Z,101596.28
2023-01-22T02:07:02.746Z,101600.66
2023-01-22T02:09:35.303Z,101605.81
2023-01-22T02:12:04.512Z,101599.03
2023-01-22T02:14:36.184Z,101599.91
2023-01-22T02:17:11.321Z,101582.63
2023-01-22T02:19:39.769Z,101593.72
2023-01-22T02:22:15.019Z,101590.25
2023-01-22T02:24:43.434Z,101589.47
2023-01-22T02:27:12.597Z,101588.72
2023-01-22T02:29:41.423Z,101592.19
2023-01-22T02:32:14.250Z,101600.03
2023-01-22T02:34:42.909Z,101588.81
2023-01-22T02:37:13.131Z,101591.41
2023-01-22T02:39:41.512Z,101600.03
2023-01-22T02:42:10.505Z,101592.19
2023-01-22T02:44:43.140Z,101593.09
2023-01-22T02:47:11.465Z,101589.59
2023-01-22T02:49:39.827Z,101580.97
2023-01-22T02:52:08.193Z,101587.03
2023-01-22T02:54:38.357Z,101585.19
2023-01-22T02:57:06.803Z,101581.88
2023-01-22T02:59:35.668Z,101583.56
2023-01-22T03:02:04.043Z,101580.03
2023-01-22T03:04:32.693Z,101579.03
2023-01-22T03:07:01.248Z,101573.09
2023-01-22T03:09:30.309Z,101570.38
2023-01-22T03:12:03.056Z,101574.63
2023-01-22T03:14:52.344Z,101575.41
2023-01-22T03:17:38.498Z,101570.25
2023-01-22T03:20:25.824Z,101570.25
2023-01-22T03:23:00.958Z,101555.53
2023-01-22T03:25:29.292Z,101559.00
2023-01-22T03:28:16.431Z,101562.53
2023-01-22T03:30:50.122Z,101557.38
2023-01-22T03:33:18.504Z,101560.69
2023-01-22T03:35:47.753Z,101559.78
2023-01-22T03:38:19.964Z,101561.47
2023-01-22T03:40:48.274Z,101553.59
2023-01-22T03:43:18.046Z,101563.91
2023-01-22T03:45:46.690Z,101558.75
2023-01-22T03:48:17.341Z,101567.38
2023-01-22T03:50:45.739Z,101565.56
2023-01-22T03:53:14.076Z,101555.28
2023-01-22T03:55:42.453Z,101561.94
2023-01-22T03:58:15.741Z,101562.75
2023-01-22T04:00:45.604Z,101558.34
2023-01-22T04:03:13.984Z,101560.91
2023-01-22T04:05:42.591Z,101557.31
2023-01-22T04:08:10.978Z,101560.66
2023-01-22T04:10:43.928Z,101556.38
2023-01-22T04:13:12.505Z,101566.84
2023-01-22T04:15:46.169Z,101565.06
2023-01-22T04:18:36.685Z,101559.75
2023-01-22T04:21:19.237Z,101556.28
2023-01-22T04:23:56.979Z,101552.66
2023-01-22T04:26:25.512Z,101550.84
2023-01-22T04:28:56.059Z,101556.75
2023-01-22T04:31:28.949Z,101553.28
2023-01-22T04:34:10.752Z,101563.44
2023-01-22T04:36:50.274Z,101565.91
2023-01-22T04:39:19.149Z,101554.66
2023-01-22T04:41:48.714Z,101557.25
2023-01-22T04:44:21.502Z,101563.16
2023-01-22T04:46:54.856Z,101567.53
2023-01-22T04:49:26.062Z,101570.13
2023-01-22T04:51:56.313Z,101567.53
2023-01-22T04:54:25.403Z,101572.69
2023-01-22T04:56:54.578Z,101567.53
2023-01-22T04:59:26.017Z,101575.16
2023-01-22T05:01:55.727Z,101569.84
2023-01-22T05:04:29.635Z,101573.22
2023-01-22T05:07:00.193Z,101565.47
2023-01-22T05:09:28.610Z,101562.00
2023-01-22T05:12:00.689Z,101564.59
2023-01-22T05:14:33.715Z,101562.75
2023-01-22T05:17:04.817Z,101563.66
2023-01-22T05:19:33.166Z,101568.81
2023-01-22T05:22:01.557Z,101568.69
2023-01-22T05:24:32.753Z,101568.53
2023-01-22T05:27:03.098Z,101560.81
2023-01-22T05:29:37.655Z,101561.59
2023-01-22T05:32:16.697Z,101558.22
2023-01-22T05:34:54.182Z,101568.53
2023-01-22T05:37:22.734Z,101562.50
2023-01-22T05:39:52.140Z,101557.34
2023-01-22T05:42:20.988Z,101558.88
2023-01-22T05:44:51.342Z,101568.28
2023-01-22T05:47:24.327Z,101560.53
2023-01-22T05:50:07.201Z,101566.47
2023-01-22T05:52:35.598Z,101568.28
2023-01-22T05:55:04.122Z,101573.41
2023-01-22T05:57:38.927Z,101570.06
2023-01-22T06:00:08.978Z,101576.78
2023-01-22T06:02:46.201Z,101573.41
2023-01-22T06:05:16.377Z,101578.56
2023-01-22T06:07:48.858Z,101573.41
2023-01-22T06:10:18.197Z,101573.41
2023-01-22T06:12:49.329Z,101570.06
2023-01-22T06:15:18.132Z,101571.00
2023-01-22T06:17:53.484Z,101566.75
2023-01-22T06:20:21.958Z,101565.06
2023-01-22T06:22:51.901Z,101560.81
2023-01-22T06:25:20.298Z,101566.75
2023-01-22T06:28:02.992Z,101566.75
2023-01-22T06:30:32.369Z,101572.78
2023-01-22T06:33:04.863Z,101577.94
2023-01-22T06:35:33.911Z,101566.75
2023-01-22T06:38:02.578Z,101584.00
2023-01-22T06:40:34.130Z,101581.41
2023-01-22T06:43:04.926Z,101581.41
2023-01-22T06:45:33.896Z,101578.84
2023-01-22T06:48:10.952Z,101583.09
2023-01-22T06:50:39.749Z,101579.75
2023-01-22T06:53:08.359Z,101587.63
2023-01-22T06:55:37.050Z,101590.97
2023-01-22T06:58:05.641Z,101582.63
2023-01-22T07:00:34.046Z,101584.25
2023-01-22T07:03:06.758Z,101584.25
2023-01-22T07:05:39.306Z,101585.19
2023-01-22T07:08:07.737Z,101580.78
2023-01-22T07:10:36.133Z,101583.38
2023-01-22T07:13:04.586Z,101589.41
2023-01-22T07:15:33.312Z,101583.38
2023-01-22T07:18:01.771Z,101592.78
2023-01-22T07:20:30.155Z,101591.25
2023-01-22T07:23:00.425Z,101596.41
2023-01-22T07:25:28.971Z,101591.38
2023-01-22T07:28:00.779Z,101598.19
2023-01-22T07:30:29.948Z,101597.28
2023-01-22T07:33:00.147Z,101609.41
2023-01-22T07:35:31.816Z,101604.25
2023-01-22T07:38:02.055Z,101608.66
2023-01-22T07:40:30.403Z,101619.84
2023-01-22T07:42:58.737Z,101620.91
2023-01-22T07:45:27.308Z,101624.22
2023-01-22T07:47:57.445Z,101629.53
2023-01-22T07:50:27.586Z,101633.00
2023-01-22T07:52:56.652Z,101633.00
2023-01-22T07:55:26.363Z,101629.69
2023-01-22T07:57:59.030Z,101631.38
2023-01-22T08:00:27.717Z,101629.69
2023-01-22T08:02:56.088Z,101629.69
2023-01-22T08:05:24.432Z,101631.38
2023-01-22T08:07:52.900Z,101632.25
2023-01-22T08:10:21.449Z,101636.63
2023-01-22T08:12:51.183Z,101643.63
2023-01-22T08:15:19.748Z,101638.47
2023-01-22T08:17:50.192Z,101644.63
2023-01-22T08:20:21.273Z,101648.16
2023-01-22T08:22:49.994Z,101639.63
2023-01-22T08:25:18.638Z,101643.25
2023-01-22T08:27:46.990Z,101637.97
2023-01-22T08:30:16.972Z,101633.69
2023-01-22T08:32:46.446Z,101642.38
2023-01-22T08:35:15.245Z,101639.00
2023-01-22T08:37:44.827Z,101642.47
2023-01-22T08:40:13.880Z,101639.16
2023-01-22T08:42:42.219Z,101636.59
2023-01-22T08:45:11.344Z,101641.84
2023-01-22T08:47:41.145Z,101640.31
2023-01-22T08:50:10.519Z,101642.91
2023-01-22T08:52:39.086Z,101630.91
2023-01-22T08:55:09.856Z,101634.38
2023-01-22T08:57:38.424Z,101650.16
2023-01-22T09:00:08.490Z,101645.13
2023-01-22T09:02:36.827Z,101639.22
2023-01-22T09:05:07.735Z,101652.22
2023-01-22T09:07:36.127Z,101650.56
2023-01-22T09:10:08.021Z,101654.06
2023-01-22T09:12:36.591Z,101655.84
2023-01-22T09:15:05.496Z,101649.16
2023-01-22T09:17:34.185Z,101650.97
2023-01-22T09:20:02.514Z,101649.44
2023-01-22T09:22:32.257Z,101649.44
2023-01-22T09:25:00.647Z,101642.75
2023-01-22T09:27:29.205Z,101643.63
2023-01-22T09:29:57.518Z,101648.16
2023-01-22T09:32:25.854Z,101655.16
2023-01-22T09:34:54.269Z,101648.44
2023-01-22T09:37:22.703Z,101660.56
2023-01-22T09:39:52.977Z,101662.38
2023-01-22T09:42:27.015Z,101673.72
2023-01-22T09:44:59.049Z,101669.34
2023-01-22T09:47:33.168Z,101664.19
2023-01-22T09:50:05.900Z,101655.69
2023-01-22T09:52:37.687Z,101669.34
2023-01-22T09:55:13.095Z,101659.03
2023-01-22T09:57:45.511Z,101661.75
2023-01-22T10:00:20.568Z,101659.31
2023-01-22T10:02:53.672Z,101655.94
2023-01-22T10:05:31.195Z,101656.88
2023-01-22T10:08:05.686Z,101657.78
2023-01-22T10:10:36.355Z,101648.22
2023-01-22T10:13:14.473Z,101647.47
2023-01-22T10:15:43.059Z,101650.78
2023-01-22T10:18:25.213Z,101649.25
2023-01-22T10:20:55.648Z,101651.84
2023-01-22T10:23:26.595Z,101646.69
2023-01-22T10:26:05.481Z,101649.25
2023-01-22T10:28:33.959Z,101649.25
2023-01-22T10:31:02.528Z,101658.81
2023-01-22T10:33:30.990Z,101651.09
2023-01-22T10:35:59.361Z,101640.00
2023-01-22T10:38:29.988Z,101654.97
2023-01-22T10:41:01.999Z,101645.69
2023-01-22T10:43:35.648Z,101651.13
2023-01-22T10:46:07.555Z,101645.19
2023-01-22T10:48:36.059Z,101645.34
2023-01-22T10:51:14.960Z,101647.28
2023-01-22T10:53:48.521Z,101644.97
2023-01-22T10:56:30.055Z,101650.13
2023-01-22T10:58:59.998Z,101642.38
2023-01-22T11:01:32.474Z,101653.75
2023-01-22T11:04:01.248Z,101638.28
2023-01-22T11:06:37.870Z,101638.28
2023-01-22T11:09:13.079Z,101634.91
2023-01-22T11:11:48.210Z,101629.00
2023-01-22T11:14:23.400Z,101631.59
2023-01-22T11:16:53.779Z,101627.44
2023-01-22T11:19:36.578Z,101631.84
2023-01-22T11:22:12.892Z,101632.88
2023-01-22T11:24:47.251Z,101626.16
2023-01-22T11:27:35.172Z,101624.63
2023-01-22T11:30:19.799Z,101635.88
2023-01-22T11:33:02.679Z,101634.19
2023-01-22T11:35:38.191Z,101640.09
2023-01-22T11:38:20.166Z,101633.41
2023-01-22T11:41:04.550Z,101631.88
2023-01-22T11:43:49.941Z,101630.34
2023-01-22T11:46:32.847Z,101632.13
2023-01-22T11:49:12.319Z,101633.97
2023-01-22T11:51:51.853Z,101630.59
2023-01-22T11:54:40.150Z,101629.06
2023-01-22T11:57:18.043Z,101624.94
2023-01-22T12:00:16.758Z,101636.28
2023-01-22T12:03:15.087Z,101639.16
2023-01-22T12:05:49.514Z,101634.72
2023-01-22T12:08:34.429Z,101632.16
2023-01-22T12:11:23.381Z,101634.88
2023-01-22T12:14:11.893Z,101629.88
2023-01-22T12:16:51.163Z,101630.13
2023-01-22T12:19:37.681Z,101626.75
2023-01-22T12:22:13.737Z,101634.38
2023-01-22T12:24:47.924Z,101637.06
2023-01-22T12:27:22.472Z,101630.13
2023-01-22T12:29:59.762Z,101622.50
2023-01-22T12:32:31.798Z,101626.00
2023-01-22T12:35:05.260Z,101619.16
2023-01-22T12:37:46.715Z,101627.00
2023-01-22T12:40:34.417Z,101626.91
2023-01-22T12:43:04.421Z,101624.44
2023-01-22T12:45:42.276Z,101627.16
2023-01-22T12:48:24.634Z,101633.09
2023-01-22T12:50:55.184Z,101625.47
2023-01-22T12:53:26.358Z,101625.47
2023-01-22T12:56:03.685Z,101625.47
2023-01-22T12:58:35.957Z,101624.56
2023-01-22T13:01:22.650Z,101618.78
2023-01-22T13:04:00.491Z,101625.72
2023-01-22T13:06:34.804Z,101623.03
2023-01-22T13:09:03.892Z,101623.94
2023-01-22T13:11:36.968Z,101618.78
2023-01-22T13:14:18.728Z,101627.41
2023-01-22T13:16:53.530Z,101622.41
2023-01-22T13:19:24.489Z,101629.34
2023-01-22T13:21:53.854Z,101629.59
2023-01-22T13:24:22.782Z,101629.00
2023-01-22T13:26:54.908Z,101628.06
2023-01-22T13:29:27.245Z,101629.00
2023-01-22T13:32:02.868Z,101622.91
2023-01-22T13:34:33.247Z,101628.84
2023-01-22T13:37:03.964Z,101628.06
2023-01-22T13:39:40.313Z,101629.91
2023-01-22T13:42:18.722Z,101634.28
2023-01-22T13:44:54.200Z,101633.53
2023-01-22T13:47:31.194Z,101642.03
2023-01-22T13:50:04.680Z,101641.25
2023-01-22T13:52:42.168Z,101634.28
2023-01-22T13:55:16.533Z,101632.47
2023-01-22T13:57:49.189Z,101634.41
2023-01-22T14:00:39.467Z,101637.00
2023-01-22T14:03:22.129Z,101633.53
2023-01-22T14:05:51.938Z,101645.66
2023-01-22T14:08:20.340Z,101643.97
2023-01-22T14:10:58.749Z,101641.38
2023-01-22T14:13:27.113Z,101639.69
2023-01-22T14:15:57.312Z,101646.53
2023-01-22T14:18:29.475Z,101656.13
2023-01-22T14:20:59.211Z,101651.84
2023-01-22T14:23:27.643Z,101653.53
2023-01-22T14:25:57.625Z,101656.13
2023-01-22T14:28:28.194Z,101659.44
2023-01-22T14:30:56.589Z,101661.13
2023-01-22T14:33:27.182Z,101669.03
2023-01-22T14:35:55.583Z,101668.09
2023-01-22T14:38:29.270Z,101677.78
2023-01-22T14:40:57.691Z,101672.75
2023-01-22T14:43:26.029Z,101678.72
2023-01-22T14:45:55.061Z,101687.47
2023-01-22T14:48:26.275Z,101692.63
2023-01-22T14:50:57.312Z,101684.13
2023-01-22T14:53:27.037Z,101678.97
2023-01-22T14:56:02.930Z,101687.75
2023-01-22T14:58:31.329Z,101685.94
2023-01-22T15:01:01.586Z,101702.31
2023-01-22T15:03:30.688Z,101698.09
2023-01-22T15:05:59.072Z,101700.69
2023-01-22T15:08:30.636Z,101698.09
2023-01-22T15:11:00.480Z,101705.94
2023-01-22T15:13:28.860Z,101703.50
2023-01-22T15:15:57.183Z,101707.00
2023-01-22T15:18:25.584Z,101721.69
2023-01-22T15:20:57.052Z,101715.63
2023-01-22T15:23:25.459Z,101713.84
2023-01-22T15:25:59.924Z,101722.63
2023-01-22T15:28:28.666Z,101720.81
2023-01-22T15:30:57.651Z,101720.81
2023-01-22T15:33:26.097Z,101724.19
2023-01-22T15:35:54.394Z,101727.50
2023-01-22T15:38:22.704Z,101726.59
2023-01-22T15:40:51.058Z,101730.88
2023-01-22T15:43:20.744Z,101729.97
2023-01-22T15:45:49.180Z,101727.25
2023-01-22T15:48:17.594Z,101735.16
2023-01-22T15:50:45.900Z,101735.00
2023-01-22T15:53:14.300Z,101733.31
2023-01-22T15:55:49.725Z,101733.31
2023-01-22T15:58:18.041Z,101728.16
2023-01-22T16:00:47.704Z,101723.91
2023-01-22T16:03:16.037Z,101728.28
2023-01-22T16:05:44.375Z,101720.53
2023-01-22T16:08:12.711Z,101736.03
2023-01-22T16:10:41.102Z,101730.88
2023-01-22T16:13:09.578Z,101729.09
2023-01-22T16:15:38.015Z,101729.09
2023-01-22T16:18:07.767Z,101727.25
2023-01-22T16:20:36.133Z,101727.25
2023-01-22T16:23:05.866Z,101723.78
2023-01-22T16:25:34.817Z,101727.25
2023-01-22T16:28:03.135Z,101723.91
2023-01-22T16:30:31.563Z,101727.41
2023-01-22T16:32:59.964Z,101730.88
2023-01-22T16:35:29.703Z,101730.88
2023-01-22T16:37:58.063Z,101730.09
2023-01-22T16:40:26.461Z,101720.41
2023-01-22T16:43:00.003Z,101720.53
2023-01-22T16:45:28.414Z,101723.91
2023-01-22T16:47:56.824Z,101722.88
2023-01-22T16:50:25.228Z,101721.19
2023-01-22T16:52:54.909Z,101729.09
2023-01-22T16:55:23.853Z,101723.13
2023-01-22T16:57:54.197Z,101722.34
2023-01-22T17:00:23.031Z,101726.59
2023-01-22T17:02:51.453Z,101728.16
2023-01-22T17:05:22.907Z,101729.09
2023-01-22T17:07:51.279Z,101729.09
2023-01-22T17:10:21.294Z,101726.50
2023-01-22T17:12:49.959Z,101732.41
2023-01-22T17:15:21.552Z,101734.25
2023-01-22T17:17:51.640Z,101728.16
2023-01-22T17:20:20.456Z,101746.22
2023-01-22T17:22:48.948Z,101744.56
2023-01-22T17:25:17.409Z,101740.94
2023-01-22T17:27:47.104Z,101742.63
2023-01-22T17:30:16.270Z,101748.53
2023-01-22T17:32:47.695Z,101749.44
2023-01-22T17:35:16.426Z,101752.03
2023-01-22T17:37:45.543Z,101749.44
2023-01-22T17:40:14.276Z,101742.47
2023-01-22T17:42:42.743Z,101740.69
2023-01-22T17:45:13.037Z,101747.66
2023-01-22T17:47:44.133Z,101737.31
2023-01-22T17:50:13.978Z,101741.69
2023-01-22T17:52:44.059Z,101744.28
2023-01-22T17:55:12.420Z,101745.22
2023-01-22T17:57:42.104Z,101746.13
2023-01-22T18:00:13.408Z,101745.22
2023-01-22T18:02:41.924Z,101753.84
2023-01-22T18:05:10.942Z,101764.94
2023-01-22T18:07:39.280Z,101765.88
2023-01-22T18:10:11.094Z,101763.41
2023-01-22T18:12:39.468Z,101766.78
2023-01-22T18:15:08.634Z,101773.72
2023-01-22T18:17:38.436Z,101770.25
2023-01-22T18:20:09.629Z,101771.94
2023-01-22T18:22:38.030Z,101768.56
2023-01-22T18:25:07.267Z,101773.72
2023-01-22T18:27:35.605Z,101781.47
2023-01-22T18:30:03.986Z,101774.53
2023-01-22T18:32:35.701Z,101780.59
2023-01-22T18:35:06.511Z,101784.06
2023-01-22T18:37:41.579Z,101795.19
2023-01-22T18:40:15.198Z,101788.34
2023-01-22T18:42:43.541Z,101790.00
2023-01-22T18:45:15.430Z,101792.59
2023-01-22T18:47:43.787Z,101799.56
2023-01-22T18:50:16.636Z,101798.66
2023-01-22T18:52:45.384Z,101802.13
2023-01-22T18:55:17.621Z,101803.97
2023-01-22T18:57:52.052Z,101795.28
2023-01-22T19:00:21.279Z,101804.88
2023-01-22T19:02:54.963Z,101806.56
2023-01-22T19:05:28.748Z,101806.56
2023-01-22T19:07:58.375Z,101808.34
2023-01-22T19:10:30.609Z,101804.97
2023-01-22T19:12:59.001Z,101810.16
2023-01-22T19:15:28.081Z,101808.50
2023-01-22T19:17:56.594Z,101805.91
2023-01-22T19:20:26.386Z,101807.72
2023-01-22T19:22:54.818Z,101813.78
2023-01-22T19:25:23.227Z,101813.78
2023-01-22T19:27:51.548Z,101816.38
2023-01-22T19:30:20.186Z,101825.00
2023-01-22T19:32:48.621Z,101833.69
2023-01-22T19:35:20.224Z,101829.44
2023-01-22T19:37:50.137Z,101833.69
2023-01-22T19:40:19.790Z,101834.75
2023-01-22T19:42:48.461Z,101841.69
2023-01-22T19:45:17.351Z,101837.31
2023-01-22T19:47:45.834Z,101836.53
2023-01-22T19:50:14.204Z,101831.38
2023-01-22T19:52:42.904Z,101829.84
2023-01-22T19:55:12.805Z,101834.09
2023-01-22T19:57:41.231Z,101829.84
2023-01-22T20:00:10.951Z,101837.69
2023-01-22T20:02:40.435Z,101833.47
2023-01-22T20:05:09.381Z,101835.25
2023-01-22T20:07:37.748Z,101840.44
2023-01-22T20:10:07.129Z,101826.72
2023-01-22T20:12:36.893Z,101840.44
2023-01-22T20:15:05.993Z,101842.22
2023-01-22T20:17:36.511Z,101853.50
2023-01-22T20:20:05.717Z,101856.97
2023-01-22T20:22:34.122Z,101859.56
2023-01-22T20:25:03.790Z,101860.47
2023-01-22T20:27:32.267Z,101849.22
2023-01-22T20:30:02.043Z,101858.03
2023-01-22T20:32:30.557Z,101857.09
2023-01-22T20:34:59.164Z,101856.34
2023-01-22T20:37:27.641Z,101860.59
2023-01-22T20:39:56.091Z,101854.66
2023-01-22T20:42:24.458Z,101852.97
2023-01-22T20:44:52.934Z,101856.59
2023-01-22T20:47:22.595Z,101849.50
2023-01-22T20:49:50.978Z,101861.63
2023-01-22T20:52:19.980Z,101866.78
2023-01-22T20:55:01.003Z,101866.03
2023-01-22T20:57:30.401Z,101867.84
2023-01-22T20:59:58.759Z,101866.16
2023-01-22T21:02:28.575Z,101874.06
2023-01-22T21:04:56.930Z,101870.56
2023-01-22T21:07:25.367Z,101871.47
2023-01-22T21:09:53.708Z,101872.38
2023-01-22T21:12:22.188Z,101876.00
2023-01-22T21:14:54.397Z,101879.47
2023-01-22T21:17:23.100Z,101879.47
2023-01-22T21:19:55.231Z,101872.50
2023-01-22T21:22:23.598Z,101868.41
2023-01-22T21:24:51.964Z,101870.06
2023-01-22T21:27:20.351Z,101867.59
2023-01-22T21:29:51.846Z,101873.56
2023-01-22T21:32:20.360Z,101869.16
2023-01-22T21:34:49.230Z,101875.25
2023-01-22T21:37:18.994Z,101870.06
2023-01-22T21:39:47.508Z,101870.06
2023-01-22T21:42:33.581Z,101868.25
2023-01-22T21:45:19.118Z,101875.25
2023-01-22T21:47:47.461Z,101878.72
2023-01-22T21:50:16.331Z,101883.13
2023-01-22T21:52:47.669Z,101880.53
2023-01-22T21:55:17.538Z,101875.34
2023-01-22T21:57:45.901Z,101887.53
2023-01-22T22:00:16.359Z,101885.69
2023-01-22T22:02:45.108Z,101881.44
2023-01-22T22:05:13.516Z,101881.56
2023-01-22T22:07:41.855Z,101876.41
2023-01-22T22:10:14.717Z,101878.84
2023-01-22T22:12:43.638Z,101879.00
2023-01-22T22:15:12.334Z,101880.78
2023-01-22T22:17:40.729Z,101883.38
2023-01-22T22:20:11.371Z,101885.22
2023-01-22T22:22:39.740Z,101879.88
2023-01-22T22:25:08.739Z,101879.13
2023-01-22T22:27:38.554Z,101884.41
2023-01-22T22:30:08.040Z,101881.84
2023-01-22T22:32:36.428Z,101886.25
2023-01-22T22:35:05.222Z,101884.41
2023-01-22T22:37:33.725Z,101884.41
2023-01-22T22:40:02.067Z,101891.44
2023-01-22T22:42:30.592Z,101881.09
2023-01-22T22:45:00.252Z,101883.66
2023-01-22T22:47:28.558Z,101886.38
2023-01-22T22:49:56.951Z,101887.28
2023-01-22T22:52:25.388Z,101884.69
2023-01-22T22:54:54.059Z,101892.44
2023-01-22T22:57:22.398Z,101873.59
2023-01-22T22:59:50.787Z,101877.88
2023-01-22T23:02:20.536Z,101883.94
2023-01-22T23:04:48.956Z,101883.94
2023-01-22T23:07:17.340Z,101883.94
2023-01-22T23:09:46.583Z,101882.25
2023-01-22T23:12:15.460Z,101887.28
2023-01-22T23:14:43.909Z,101888.19
2023-01-22T23:17:12.220Z,101888.19
2023-01-22T23:19:42.955Z,101887.28
2023-01-22T23:22:11.465Z,101882.09
2023-01-22T23:24:40.326Z,101894.28
2023-01-22T23:27:08.686Z,101895.03
2023-01-22T23:29:37.233Z,101897.59
2023-01-22T23:32:05.955Z,101902.78
2023-01-22T23:34:34.426Z,101900.19
2023-01-22T23:37:04.184Z,101897.59
2023-01-22T23:39:32.567Z,101909.78
2023-01-22T23:42:00.886Z,101903.72
2023-01-22T23:44:29.187Z,101909.00
2023-01-22T23:46:57.564Z,101911.56
2023-01-22T23:49:25.944Z,101912.34
2023-01-22T23:51:54.320Z,101915.84
2023-01-22T23:54:24.128Z,101922.69
2023-01-22T23:56:52.472Z,101914.94
2023-01-22T23:59:23.397Z,101925.41
